sensor_id;sensor_type;location;lat;lon;timestamp;pressure;altitude;pressure_sealevel;temperature;humidity
37892;BME280;45797;47.466;9.486;2023-05-23T00:03:12;95649.69;;;20.04;54.62
37892;BME280;45797;47.466;9.486;2023-05-23T00:08:13;95644.38;;;20.04;54.36
37892;BME280;45797;47.466;9.486;2023-05-23T00:13:14;95650.34;;;20.06;54.86
37892;BME280;45797;47.466;9.486;2023-05-23T00:18:18;95629.88;;;20.07;54.55
37892;BME280;45797;47.466;9.486;2023-05-23T00:23:25;95630.53;;;20.09;54.33
37892;BME280;45797;47.466;9.486;2023-05-23T00:28:28;95620.75;;;20.09;54.37
37892;BME280;45797;47.466;9.486;2023-05-23T00:33:30;95623.88;;;20.13;54.14
37892;BME280;45797;47.466;9.486;2023-05-23T00:38:32;95628.66;;;20.17;54.63
37892;BME280;45797;47.466;9.486;2023-05-23T00:43:35;95632.47;;;20.23;54.20
37892;BME280;45797;47.466;9.486;2023-05-23T00:48:49;95625.50;;;20.22;54.22
37892;BME280;45797;47.466;9.486;2023-05-23T00:53:59;95630.16;;;20.28;53.95
37892;BME280;45797;47.466;9.486;2023-05-23T00:59:00;95639.41;;;20.32;53.99
37892;BME280;45797;47.466;9.486;2023-05-23T01:04:02;95654.38;;;20.33;54.26
37892;BME280;45797;47.466;9.486;2023-05-23T01:09:03;95658.03;;;20.32;54.75
37892;BME280;45797;47.466;9.486;2023-05-23T01:14:10;95657.56;;;20.29;54.58
37892;BME280;45797;47.466;9.486;2023-05-23T01:19:55;95655.41;;;20.24;54.50
37892;BME280;45797;47.466;9.486;2023-05-23T01:24:56;95654.41;;;20.25;54.68
37892;BME280;45797;47.466;9.486;2023-05-23T01:30:18;95653.28;;;20.19;54.88
37892;BME280;45797;47.466;9.486;2023-05-23T01:35:26;95659.44;;;20.20;55.04
37892;BME280;45797;47.466;9.486;2023-05-23T01:40:27;95656.28;;;20.16;55.24
37892;BME280;45797;47.466;9.486;2023-05-23T01:45:28;95664.78;;;20.12;55.52
37892;BME280;45797;47.466;9.486;2023-05-23T01:50:30;95657.13;;;20.09;55.85
37892;BME280;45797;47.466;9.486;2023-05-23T01:55:31;95656.66;;;20.05;56.12
37892;BME280;45797;47.466;9.486;2023-05-23T02:00:33;95662.16;;;20.04;55.81
37892;BME280;45797;47.466;9.486;2023-05-23T02:05:34;95669.31;;;20.03;56.10
37892;BME280;45797;47.466;9.486;2023-05-23T02:10:36;95674.19;;;19.91;56.72
37892;BME280;45797;47.466;9.486;2023-05-23T02:15:46;95682.34;;;19.82;56.82
37892;BME280;45797;47.466;9.486;2023-05-23T02:21:13;95674.88;;;19.77;56.83
37892;BME280;45797;47.466;9.486;2023-05-23T02:26:15;95663.22;;;19.78;56.79
37892;BME280;45797;47.466;9.486;2023-05-23T02:31:21;95666.25;;;19.75;56.85
37892;BME280;45797;47.466;9.486;2023-05-23T02:36:35;95664.06;;;19.71;57.32
37892;BME280;45797;47.466;9.486;2023-05-23T02:42:07;95667.91;;;19.68;57.17
37892;BME280;45797;47.466;9.486;2023-05-23T02:47:23;95679.19;;;19.70;57.38
37892;BME280;45797;47.466;9.486;2023-05-23T02:52:26;95680.88;;;19.71;57.58
37892;BME280;45797;47.466;9.486;2023-05-23T02:57:45;95683.56;;;19.63;57.65
37892;BME280;45797;47.466;9.486;2023-05-23T03:02:46;95683.56;;;19.63;57.70
37892;BME280;45797;47.466;9.486;2023-05-23T03:07:56;95685.03;;;19.57;57.70
37892;BME280;45797;47.466;9.486;2023-05-23T03:13:02;95683.53;;;19.55;58.02
37892;BME280;45797;47.466;9.486;2023-05-23T03:18:04;95689.50;;;19.49;58.09
37892;BME280;45797;47.466;9.486;2023-05-23T03:23:08;95695.16;;;19.46;58.70
37892;BME280;45797;47.466;9.486;2023-05-23T03:28:09;95692.00;;;19.42;59.01
37892;BME280;45797;47.466;9.486;2023-05-23T03:33:11;95705.47;;;19.40;58.62
37892;BME280;45797;47.466;9.486;2023-05-23T03:38:11;95707.94;;;19.42;58.60
37892;BME280;45797;47.466;9.486;2023-05-23T03:43:12;95712.13;;;19.45;58.82
37892;BME280;45797;47.466;9.486;2023-05-23T03:48:23;95710.59;;;19.50;58.76
37892;BME280;45797;47.466;9.486;2023-05-23T03:53:25;95714.59;;;19.54;59.12
37892;BME280;45797;47.466;9.486;2023-05-23T03:58:27;95713.28;;;19.58;58.84
37892;BME280;45797;47.466;9.486;2023-05-23T04:03:32;95714.94;;;19.59;58.97
37892;BME280;45797;47.466;9.486;2023-05-23T04:08:34;95711.28;;;19.60;58.67
37892;BME280;45797;47.466;9.486;2023-05-23T04:13:42;95722.59;;;19.62;59.14
37892;BME280;45797;47.466;9.486;2023-05-23T04:18:44;95721.41;;;19.49;59.45
37892;BME280;45797;47.466;9.486;2023-05-23T04:23:48;95729.03;;;19.52;59.52
37892;BME280;45797;47.466;9.486;2023-05-23T04:28:50;95730.56;;;19.62;59.54
37892;BME280;45797;47.466;9.486;2023-05-23T04:33:55;95729.56;;;19.72;59.11
37892;BME280;45797;47.466;9.486;2023-05-23T04:38:58;95733.00;;;19.80;59.38
37892;BME280;45797;47.466;9.486;2023-05-23T04:44:01;95728.19;;;19.92;58.97
37892;BME280;45797;47.466;9.486;2023-05-23T04:49:08;95735.63;;;20.05;59.02
37892;BME280;45797;47.466;9.486;2023-05-23T04:54:11;95732.28;;;20.19;58.54
37892;BME280;45797;47.466;9.486;2023-05-23T04:59:11;95729.88;;;20.32;58.45
37892;BME280;45797;47.466;9.486;2023-05-23T05:04:21;95733.81;;;20.52;58.10
37892;BME280;45797;47.466;9.486;2023-05-23T05:09:24;95727.25;;;20.71;57.85
37892;BME280;45797;47.466;9.486;2023-05-23T05:14:34;95735.78;;;20.90;57.42
37892;BME280;45797;47.466;9.486;2023-05-23T05:19:35;95737.25;;;20.92;58.02
37892;BME280;45797;47.466;9.486;2023-05-23T05:24:35;95741.72;;;21.00;57.68
37892;BME280;45797;47.466;9.486;2023-05-23T05:41:05;95740.41;;;21.27;57.78
37892;BME280;45797;47.466;9.486;2023-05-23T05:52:02;95728.03;;;21.72;57.07
37892;BME280;45797;47.466;9.486;2023-05-23T05:57:19;95733.72;;;21.68;56.99
37892;BME280;45797;47.466;9.486;2023-05-23T06:02:20;95745.69;;;21.73;56.97
37892;BME280;45797;47.466;9.486;2023-05-23T06:07:38;95750.03;;;21.74;57.01
37892;BME280;45797;47.466;9.486;2023-05-23T06:12:40;95745.63;;;21.81;56.77
37892;BME280;45797;47.466;9.486;2023-05-23T06:17:47;95751.97;;;21.94;56.72
37892;BME280;45797;47.466;9.486;2023-05-23T06:22:55;95760.34;;;22.06;56.30
37892;BME280;45797;47.466;9.486;2023-05-23T06:27:57;95759.03;;;22.10;56.49
37892;BME280;45797;47.466;9.486;2023-05-23T06:33:08;95772.56;;;22.23;56.23
37892;BME280;45797;47.466;9.486;2023-05-23T06:38:21;95767.97;;;22.32;55.99
37892;BME280;45797;47.466;9.486;2023-05-23T06:43:29;95771.19;;;22.42;55.91
37892;BME280;45797;47.466;9.486;2023-05-23T06:48:47;95777.56;;;22.56;55.68
37892;BME280;45797;47.466;9.486;2023-05-23T06:53:47;95783.44;;;22.66;55.65
37892;BME280;45797;47.466;9.486;2023-05-23T06:58:49;95785.25;;;22.95;55.55
37892;BME280;45797;47.466;9.486;2023-05-23T07:03:58;95774.28;;;22.90;55.38
37892;BME280;45797;47.466;9.486;2023-05-23T07:08:58;95785.88;;;22.83;55.99
37892;BME280;45797;47.466;9.486;2023-05-23T07:14:00;95788.78;;;22.66;56.14
37892;BME280;45797;47.466;9.486;2023-05-23T07:19:13;95791.34;;;22.45;56.75
37892;BME280;45797;47.466;9.486;2023-05-23T07:24:19;95785.72;;;22.55;56.49
37892;BME280;45797;47.466;9.486;2023-05-23T07:29:27;95795.22;;;22.87;55.63
37892;BME280;45797;47.466;9.486;2023-05-23T07:34:31;95788.75;;;22.96;55.73
37892;BME280;45797;47.466;9.486;2023-05-23T07:39:49;95790.84;;;23.00;55.19
37892;BME280;45797;47.466;9.486;2023-05-23T07:44:50;95790.66;;;23.17;55.22
37892;BME280;45797;47.466;9.486;2023-05-23T07:49:51;95796.41;;;23.35;54.50
37892;BME280;45797;47.466;9.486;2023-05-23T07:55:00;95794.03;;;23.61;54.11
37892;BME280;45797;47.466;9.486;2023-05-23T08:00:10;95807.94;;;23.78;53.78
37892;BME280;45797;47.466;9.486;2023-05-23T08:05:15;95804.38;;;23.92;53.68
37892;BME280;45797;47.466;9.486;2023-05-23T08:10:16;95803.25;;;23.80;53.90
37892;BME280;45797;47.466;9.486;2023-05-23T08:15:21;95810.09;;;23.47;54.69
37892;BME280;45797;47.466;9.486;2023-05-23T08:20:30;95805.78;;;23.09;55.10
37892;BME280;45797;47.466;9.486;2023-05-23T08:25:34;95807.59;;;23.24;54.62
37892;BME280;45797;47.466;9.486;2023-05-23T08:30:35;95808.09;;;23.70;53.56
37892;BME280;45797;47.466;9.486;2023-05-23T08:35:41;95811.16;;;24.38;52.31
37892;BME280;45797;47.466;9.486;2023-05-23T08:40:50;95811.28;;;24.58;52.16
37892;BME280;45797;47.466;9.486;2023-05-23T08:45:56;95817.09;;;24.68;52.22
37892;BME280;45797;47.466;9.486;2023-05-23T08:51:04;95821.00;;;24.65;52.28
37892;BME280;45797;47.466;9.486;2023-05-23T08:56:08;95818.22;;;24.52;52.57
37892;BME280;45797;47.466;9.486;2023-05-23T09:01:36;95832.44;;;24.25;53.22
37892;BME280;45797;47.466;9.486;2023-05-23T09:06:41;95825.91;;;24.06;53.58
37892;BME280;45797;47.466;9.486;2023-05-23T09:11:45;95825.81;;;24.20;53.08
37892;BME280;45797;47.466;9.486;2023-05-23T09:16:48;95829.03;;;24.09;53.01
37892;BME280;45797;47.466;9.486;2023-05-23T09:21:52;95836.59;;;24.27;53.29
37892;BME280;45797;47.466;9.486;2023-05-23T09:26:59;95827.47;;;24.77;52.10
37892;BME280;45797;47.466;9.486;2023-05-23T09:32:12;95822.53;;;25.22;51.12
37892;BME280;45797;47.466;9.486;2023-05-23T09:37:15;95827.53;;;25.32;51.17
37892;BME280;45797;47.466;9.486;2023-05-23T09:42:21;95816.63;;;25.47;50.92
37892;BME280;45797;47.466;9.486;2023-05-23T09:47:23;95814.81;;;25.60;50.69
37892;BME280;45797;47.466;9.486;2023-05-23T09:52:42;95816.03;;;25.64;50.59
37892;BME280;45797;47.466;9.486;2023-05-23T09:57:43;95820.03;;;25.88;49.95
37892;BME280;45797;47.466;9.486;2023-05-23T10:03:14;95805.59;;;26.03;49.60
37892;BME280;45797;47.466;9.486;2023-05-23T10:08:24;95804.13;;;26.20;49.28
37892;BME280;45797;47.466;9.486;2023-05-23T10:13:30;95801.03;;;26.23;49.84
37892;BME280;45797;47.466;9.486;2023-05-23T10:18:38;95786.56;;;26.51;49.10
37892;BME280;45797;47.466;9.486;2023-05-23T10:23:46;95801.06;;;26.16;49.38
37892;BME280;45797;47.466;9.486;2023-05-23T10:29:06;95801.19;;;25.69;50.53
37892;BME280;45797;47.466;9.486;2023-05-23T10:39:56;95783.06;;;25.71;50.64
37892;BME280;45797;47.466;9.486;2023-05-23T10:45:16;95784.50;;;26.19;49.45
37892;BME280;45797;47.466;9.486;2023-05-23T10:50:35;95772.47;;;26.62;48.56
37892;BME280;45797;47.466;9.486;2023-05-23T10:55:47;95778.13;;;26.98;47.96
37892;BME280;45797;47.466;9.486;2023-05-23T11:00:56;95775.19;;;27.20;47.57
37892;BME280;45797;47.466;9.486;2023-05-23T11:05:57;95771.47;;;27.21;47.56
37892;BME280;45797;47.466;9.486;2023-05-23T11:11:04;95771.56;;;27.39;47.31
37892;BME280;45797;47.466;9.486;2023-05-23T11:16:39;95758.59;;;27.61;46.83
37892;BME280;45797;47.466;9.486;2023-05-23T11:22:07;95764.50;;;27.76;46.61
37892;BME280;45797;47.466;9.486;2023-05-23T11:27:11;95762.25;;;27.73;46.75
37892;BME280;45797;47.466;9.486;2023-05-23T11:32:13;95762.69;;;27.32;47.46
37892;BME280;45797;47.466;9.486;2023-05-23T11:37:20;95759.50;;;27.48;46.84
37892;BME280;45797;47.466;9.486;2023-05-23T11:42:22;95757.88;;;27.41;47.06
37892;BME280;45797;47.466;9.486;2023-05-23T11:47:25;95749.28;;;27.25;47.02
37892;BME280;45797;47.466;9.486;2023-05-23T11:52:31;95740.69;;;27.10;47.33
37892;BME280;45797;47.466;9.486;2023-05-23T11:57:32;95736.00;;;26.79;47.57
37892;BME280;45797;47.466;9.486;2023-05-23T12:02:40;95734.22;;;26.53;47.94
37892;BME280;45797;47.466;9.486;2023-05-23T12:07:47;95743.09;;;26.60;47.49
37892;BME280;45797;47.466;9.486;2023-05-23T12:12:50;95744.00;;;26.28;47.72
37892;BME280;45797;47.466;9.486;2023-05-23T12:17:53;95749.59;;;25.93;48.36
37892;BME280;45797;47.466;9.486;2023-05-23T12:23:03;95748.78;;;25.73;48.59
37892;BME280;45797;47.466;9.486;2023-05-23T12:28:05;95754.31;;;25.58;48.52
37892;BME280;45797;47.466;9.486;2023-05-23T12:33:08;95753.91;;;25.54;48.86
37892;BME280;45797;47.466;9.486;2023-05-23T12:38:13;95745.66;;;25.62;48.61
37892;BME280;45797;47.466;9.486;2023-05-23T12:43:17;95748.16;;;25.71;48.50
37892;BME280;45797;47.466;9.486;2023-05-23T12:48:25;95750.44;;;25.87;48.33
37892;BME280;45797;47.466;9.486;2023-05-23T12:53:27;95751.44;;;26.12;48.03
37892;BME280;45797;47.466;9.486;2023-05-23T12:58:28;95744.81;;;26.22;47.68
37892;BME280;45797;47.466;9.486;2023-05-23T13:03:36;95760.34;;;26.06;47.72
37892;BME280;45797;47.466;9.486;2023-05-23T13:08:36;95746.94;;;25.80;48.11
37892;BME280;45797;47.466;9.486;2023-05-23T13:13:37;95752.25;;;25.60;48.58
37892;BME280;45797;47.466;9.486;2023-05-23T13:18:37;95751.41;;;25.46;49.43
37892;BME280;45797;47.466;9.486;2023-05-23T13:23:40;95751.03;;;25.62;48.82
37892;BME280;45797;47.466;9.486;2023-05-23T13:28:46;95747.13;;;25.98;47.93
37892;BME280;45797;47.466;9.486;2023-05-23T13:33:46;95739.63;;;26.33;48.04
37892;BME280;45797;47.466;9.486;2023-05-23T13:38:47;95731.47;;;26.80;47.04
37892;BME280;45797;47.466;9.486;2023-05-23T13:43:48;95733.06;;;26.94;46.81
37892;BME280;45797;47.466;9.486;2023-05-23T13:48:48;95732.09;;;26.82;46.51
37892;BME280;45797;47.466;9.486;2023-05-23T13:53:48;95747.81;;;26.71;46.60
37892;BME280;45797;47.466;9.486;2023-05-23T13:59:00;95751.22;;;26.54;46.59
37892;BME280;45797;47.466;9.486;2023-05-23T14:04:01;95751.66;;;26.37;46.64
37892;BME280;45797;47.466;9.486;2023-05-23T14:09:02;95744.00;;;26.34;46.12
37892;BME280;45797;47.466;9.486;2023-05-23T14:14:03;95751.22;;;26.54;45.78
37892;BME280;45797;47.466;9.486;2023-05-23T14:19:04;95756.34;;;26.62;45.75
37892;BME280;45797;47.466;9.486;2023-05-23T14:24:06;95769.41;;;26.32;46.82
37892;BME280;45797;47.466;9.486;2023-05-23T14:29:07;95772.91;;;25.59;48.40
37892;BME280;45797;47.466;9.486;2023-05-23T14:34:09;95779.91;;;24.99;49.59
37892;BME280;45797;47.466;9.486;2023-05-23T14:39:12;95789.53;;;24.39;50.79
37892;BME280;45797;47.466;9.486;2023-05-23T14:44:24;95789.16;;;23.93;51.69
37892;BME280;45797;47.466;9.486;2023-05-23T14:49:24;95781.84;;;23.59;52.40
37892;BME280;45797;47.466;9.486;2023-05-23T14:54:37;95796.06;;;23.23;52.92
37892;BME280;45797;47.466;9.486;2023-05-23T14:59:47;95790.94;;;23.07;53.16
37892;BME280;45797;47.466;9.486;2023-05-23T15:04:50;95779.63;;;23.05;53.55
37892;BME280;45797;47.466;9.486;2023-05-23T15:09:50;95778.59;;;23.06;53.91
37892;BME280;45797;47.466;9.486;2023-05-23T15:14:51;95775.19;;;23.12;54.14
37892;BME280;45797;47.466;9.486;2023-05-23T15:19:59;95766.28;;;23.26;53.54
37892;BME280;45797;47.466;9.486;2023-05-23T15:25:01;95758.56;;;23.38;53.88
37892;BME280;45797;47.466;9.486;2023-05-23T15:30:03;95746.53;;;23.49;53.91
37892;BME280;45797;47.466;9.486;2023-05-23T15:35:06;95748.19;;;23.50;54.54
37892;BME280;45797;47.466;9.486;2023-05-23T15:40:07;95750.69;;;23.51;54.46
37892;BME280;45797;47.466;9.486;2023-05-23T15:45:14;95758.06;;;23.49;54.51
37892;BME280;45797;47.466;9.486;2023-05-23T15:50:14;95757.75;;;23.37;55.18
37892;BME280;45797;47.466;9.486;2023-05-23T15:55:19;95765.97;;;23.36;55.03
37892;BME280;45797;47.466;9.486;2023-05-23T16:00:21;95765.78;;;23.37;55.11
37892;BME280;45797;47.466;9.486;2023-05-23T16:05:21;95757.56;;;23.39;55.08
37892;BME280;45797;47.466;9.486;2023-05-23T16:10:22;95761.72;;;23.42;55.07
37892;BME280;45797;47.466;9.486;2023-05-23T16:15:24;95766.66;;;23.45;55.07
37892;BME280;45797;47.466;9.486;2023-05-23T16:20:24;95764.50;;;23.55;55.04
37892;BME280;45797;47.466;9.486;2023-05-23T16:25:24;95764.00;;;23.66;54.55
37892;BME280;45797;47.466;9.486;2023-05-23T16:30:28;95764.63;;;23.89;54.42
37892;BME280;45797;47.466;9.486;2023-05-23T16:35:29;95763.84;;;23.96;54.32
37892;BME280;45797;47.466;9.486;2023-05-23T16:40:38;95763.63;;;23.97;53.86
37892;BME280;45797;47.466;9.486;2023-05-23T16:45:41;95766.91;;;23.92;54.64
37892;BME280;45797;47.466;9.486;2023-05-23T16:50:46;95765.50;;;23.97;54.64
37892;BME280;45797;47.466;9.486;2023-05-23T16:55:47;95772.66;;;23.89;54.14
37892;BME280;45797;47.466;9.486;2023-05-23T17:00:53;95774.38;;;23.76;54.91
37892;BME280;45797;47.466;9.486;2023-05-23T17:06:02;95764.41;;;23.63;55.24
37892;BME280;45797;47.466;9.486;2023-05-23T17:11:04;95768.81;;;23.56;55.55
37892;BME280;45797;47.466;9.486;2023-05-23T17:16:05;95771.63;;;23.48;55.38
37892;BME280;45797;47.466;9.486;2023-05-23T17:21:15;95783.03;;;23.35;55.42
37892;BME280;45797;47.466;9.486;2023-05-23T17:26:42;95779.94;;;23.17;55.88
37892;BME280;45797;47.466;9.486;2023-05-23T17:31:42;95773.25;;;23.06;56.38
37892;BME280;45797;47.466;9.486;2023-05-23T17:36:52;95774.00;;;23.00;56.71
37892;BME280;45797;47.466;9.486;2023-05-23T17:41:52;95769.59;;;22.92;56.09
37892;BME280;45797;47.466;9.486;2023-05-23T17:46:52;95773.03;;;22.86;56.36
37892;BME280;45797;47.466;9.486;2023-05-23T17:51:53;95770.63;;;22.76;56.17
37892;BME280;45797;47.466;9.486;2023-05-23T17:57:01;95774.94;;;22.63;56.38
37892;BME280;45797;47.466;9.486;2023-05-23T18:02:06;95780.66;;;22.45;57.11
37892;BME280;45797;47.466;9.486;2023-05-23T18:07:16;95791.06;;;22.25;57.41
37892;BME280;45797;47.466;9.486;2023-05-23T18:12:25;95796.03;;;22.13;57.79
37892;BME280;45797;47.466;9.486;2023-05-23T18:17:45;95803.13;;;21.98;57.81
37892;BME280;45797;47.466;9.486;2023-05-23T18:22:50;95806.78;;;21.82;58.39
37892;BME280;45797;47.466;9.486;2023-05-23T18:27:56;95811.19;;;21.52;58.64
37892;BME280;45797;47.466;9.486;2023-05-23T18:32:57;95811.66;;;21.33;58.71
37892;BME280;45797;47.466;9.486;2023-05-23T18:37:58;95809.34;;;21.22;59.01
37892;BME280;45797;47.466;9.486;2023-05-23T18:42:59;95823.78;;;21.04;59.09
37892;BME280;45797;47.466;9.486;2023-05-23T18:48:02;95832.69;;;20.89;59.17
37892;BME280;45797;47.466;9.486;2023-05-23T18:53:04;95835.06;;;20.75;59.48
37892;BME280;45797;47.466;9.486;2023-05-23T18:58:06;95832.25;;;20.69;59.54
37892;BME280;45797;47.466;9.486;2023-05-23T19:03:12;95833.47;;;20.58;59.61
37892;BME280;45797;47.466;9.486;2023-05-23T19:08:14;95840.97;;;20.46;59.28
37892;BME280;45797;47.466;9.486;2023-05-23T19:13:24;95840.97;;;20.38;59.48
37892;BME280;45797;47.466;9.486;2023-05-23T19:18:24;95857.44;;;20.34;59.28
37892;BME280;45797;47.466;9.486;2023-05-23T19:23:25;95872.75;;;20.32;59.47
37892;BME280;45797;47.466;9.486;2023-05-23T19:28:27;95879.91;;;20.23;60.16
37892;BME280;45797;47.466;9.486;2023-05-23T19:33:36;95883.75;;;20.12;59.82
37892;BME280;45797;47.466;9.486;2023-05-23T19:38:36;95887.56;;;20.10;59.83
37892;BME280;45797;47.466;9.486;2023-05-23T19:43:41;95888.72;;;20.07;59.98
37892;BME280;45797;47.466;9.486;2023-05-23T19:48:50;95885.91;;;19.92;60.02
37892;BME280;45797;47.466;9.486;2023-05-23T19:53:50;95885.72;;;19.86;59.93
37892;BME280;45797;47.466;9.486;2023-05-23T19:58:58;95897.53;;;19.83;59.86
37892;BME280;45797;47.466;9.486;2023-05-23T20:04:13;95900.19;;;19.75;59.64
37892;BME280;45797;47.466;9.486;2023-05-23T20:09:14;95899.66;;;19.80;59.66
37892;BME280;45797;47.466;9.486;2023-05-23T20:14:24;95908.16;;;19.75;59.93
37892;BME280;45797;47.466;9.486;2023-05-23T20:19:33;95907.81;;;19.70;59.80
37892;BME280;45797;47.466;9.486;2023-05-23T20:24:34;95912.47;;;19.68;60.08
37892;BME280;45797;47.466;9.486;2023-05-23T20:29:36;95915.44;;;19.65;59.74
37892;BME280;45797;47.466;9.486;2023-05-23T20:34:41;95924.91;;;19.67;59.85
37892;BME280;45797;47.466;9.486;2023-05-23T20:39:47;95927.75;;;19.66;59.42
37892;BME280;45797;47.466;9.486;2023-05-23T20:44:49;95925.25;;;19.64;59.75
37892;BME280;45797;47.466;9.486;2023-05-23T20:49:49;95932.41;;;19.64;59.39
37892;BME280;45797;47.466;9.486;2023-05-23T20:54:51;95930.56;;;19.64;59.64
37892;BME280;45797;47.466;9.486;2023-05-23T20:59:52;95934.06;;;19.65;59.77
37892;BME280;45797;47.466;9.486;2023-05-23T21:04:53;95942.03;;;19.65;59.87
37892;BME280;45797;47.466;9.486;2023-05-23T21:09:53;95931.22;;;19.66;59.76
37892;BME280;45797;47.466;9.486;2023-05-23T21:14:53;95939.00;;;19.60;59.77
37892;BME280;45797;47.466;9.486;2023-05-23T21:19:58;95938.03;;;19.61;59.71
37892;BME280;45797;47.466;9.486;2023-05-23T21:25:05;95941.00;;;19.58;59.89
37892;BME280;45797;47.466;9.486;2023-05-23T21:30:06;95940.66;;;19.53;59.89
37892;BME280;45797;47.466;9.486;2023-05-23T21:35:08;95930.00;;;19.45;59.93
37892;BME280;45797;47.466;9.486;2023-05-23T21:40:10;95938.25;;;19.41;60.06
37892;BME280;45797;47.466;9.486;2023-05-23T21:45:20;95942.59;;;19.34;59.97
37892;BME280;45797;47.466;9.486;2023-05-23T21:50:22;95936.75;;;19.31;60.22
37892;BME280;45797;47.466;9.486;2023-05-23T21:55:25;95945.25;;;19.34;59.99
37892;BME280;45797;47.466;9.486;2023-05-23T22:00:26;95940.44;;;19.38;59.64
37892;BME280;45797;47.466;9.486;2023-05-23T22:05:28;95946.06;;;19.35;59.94
37892;BME280;45797;47.466;9.486;2023-05-23T22:10:37;95950.69;;;19.33;59.57
37892;BME280;45797;47.466;9.486;2023-05-23T22:15:42;95942.84;;;19.23;59.80
37892;BME280;45797;47.466;9.486;2023-05-23T22:20:42;95945.91;;;19.02;60.86
37892;BME280;45797;47.466;9.486;2023-05-23T22:25:43;95958.66;;;18.91;61.11
37892;BME280;45797;47.466;9.486;2023-05-23T22:30:52;95954.06;;;18.75;60.92
37892;BME280;45797;47.466;9.486;2023-05-23T22:35:55;95963.09;;;18.64;61.49
37892;BME280;45797;47.466;9.486;2023-05-23T22:40:57;95954.09;;;18.57;61.39
37892;BME280;45797;47.466;9.486;2023-05-23T22:45:59;95951.41;;;18.49;61.76
37892;BME280;45797;47.466;9.486;2023-05-23T22:51:04;95954.06;;;18.49;61.12
37892;BME280;45797;47.466;9.486;2023-05-23T22:56:32;95951.50;;;18.39;61.22
37892;BME280;45797;47.466;9.486;2023-05-23T23:01:42;95949.78;;;18.30;61.57
37892;BME280;45797;47.466;9.486;2023-05-23T23:06:47;95946.97;;;18.32;61.38
37892;BME280;45797;47.466;9.486;2023-05-23T23:11:48;95946.72;;;18.25;61.68
37892;BME280;45797;47.466;9.486;2023-05-23T23:16:48;95940.91;;;18.21;61.73
37892;BME280;45797;47.466;9.486;2023-05-23T23:27:19;95933.28;;;18.01;62.00
37892;BME280;45797;47.466;9.486;2023-05-23T23:32:23;95934.13;;;18.01;61.69
37892;BME280;45797;47.466;9.486;2023-05-23T23:37:25;95931.41;;;17.93;62.38
37892;BME280;45797;47.466;9.486;2023-05-23T23:42:27;95933.22;;;17.92;62.00
37892;BME280;45797;47.466;9.486;2023-05-23T23:47:35;95925.09;;;17.94;61.86
37892;BME280;45797;47.466;9.486;2023-05-23T23:52:37;95922.78;;;17.91;62.11
37892;BME280;45797;47.466;9.486;2023-05-23T23:57:43;95918.50;;;17.80;62.17
